• Join FlightAware (Why Join?)
  • Login
  • US Flag 
04:10AM EDT


 

Airport Tracker/Info


-or-


 

Live Flight TrackerFlight Track Log ✈ VH-DNQ ✈ 06-May-2012 ✈ YBHM / HTI - YBRK / ROK

Flight Track Log - Related Links

Times and Time Zones

All times are in EDT time to prevent confusion due to time zone crossing. See the VH-DNQ flight status page for this flight to view local times or setup timezone preferences in your user account.

Time Position Orientation Groundspeed Altitude Reporting Facility
EDT Latitude Longitude Course Direction KTS MPH feet Rate Location/Type
09:17PM -20.7477 149.2301 179° South 3,500  Level Aus ATC (Calculated)
09:18PM -20.9575 149.2359 196° South 93 107 4,200 420 Climbing Aus ATC (RADAR)
09:19PM -20.9805 149.2291 196° South 87 100 4,700 480 Climbing Aus ATC (RADAR)
09:20PM -20.9968 149.2241 196° South 82 94 5,100 420 Climbing Aus ATC (RADAR)
09:21PM -21.0103 149.2198 192° South 85 98 5,300 240 Climbing Aus ATC (RADAR)
09:22PM -21.0321 149.2149 192° South 95 109 5,500 60 Climbing Aus ATC (RADAR)
09:23PM -21.0753 149.2052 196° South 106 122 5,500  Level Aus ATC (RADAR)
09:24PM -21.0992 149.1978 195° South 106 122 5,500 60 Level Aus ATC (RADAR)
09:24PM -21.1162 149.1929 198° South 108 124 5,600  Climbing Aus ATC (RADAR)
09:25PM -21.1388 149.1851 196° South 113 130 5,500 -120 Descending Aus ATC (RADAR)
09:26PM -21.1562 149.1797 189° South 112 129 5,500 -120 Level Aus ATC (RADAR)
09:26PM -21.1795 149.1758 157° South 113 130 5,400 -60 Descending Aus ATC (RADAR)
09:28PM -21.2238 149.1955 146° Southeast 111 128 5,400 -60 Level Aus ATC (RADAR)
09:29PM -21.2426 149.2091 144° Southeast 111 128 5,300 -120 Descending Aus ATC (RADAR)
09:29PM -21.2559 149.2196 143° Southeast 104 120 5,300  Level Aus ATC (RADAR)
09:30PM -21.2729 149.2332 143° Southeast 102 117 5,300  Level Aus ATC (RADAR)
09:31PM -21.2863 149.2441 149° Southeast 103 119 5,300  Level Aus ATC (RADAR)
09:31PM -21.3000 149.2531 153° Southeast 98 113 5,300  Level Aus ATC (RADAR)
09:32PM -21.3127 149.2600 149° Southeast 101 116 5,300  Level Aus ATC (RADAR)
09:32PM -21.3270 149.2692 148° Southeast 103 119 5,300  Level Aus ATC (RADAR)
09:33PM -21.3525 149.2863 159° South 98 113 5,300  Level Aus ATC (RADAR)
09:34PM -21.3791 149.2973 145° Southeast 101 116 5,300  Level Aus ATC (RADAR)
09:35PM -21.3960 149.3101 144° Southeast 104 120 5,400 60 Climbing Aus ATC (RADAR)
09:36PM -21.4069 149.3186 161° South 98 113 5,400 60 Level Aus ATC (RADAR)
09:36PM -21.4231 149.3246 159° South 100 115 5,500 60 Climbing Aus ATC (RADAR)
09:37PM -21.4393 149.3314 152° Southeast 106 122 5,500  Level Aus ATC (RADAR)
09:37PM -21.4547 149.3401 148° Southeast 109 125 5,500  Level Aus ATC (RADAR)
09:38PM -21.4757 149.3540 153° Southeast 106 122 5,500  Level Aus ATC (RADAR)
09:39PM -21.5014 149.3681 151° Southeast 103 119 5,500  Level Aus ATC (RADAR)
09:40PM -21.5189 149.3784 156° South 107 123 5,500  Level Aus ATC (RADAR)
09:41PM -21.5348 149.3860 151° Southeast 106 122 5,500  Level Aus ATC (RADAR)
09:41PM -21.5495 149.3946 150° Southeast 105 121 5,500 -120 Level Aus ATC (RADAR)
09:42PM -21.5642 149.4036 152° Southeast 105 121 5,400 -180 Descending Aus ATC (RADAR)
09:42PM -21.5793 149.4124 154° Southeast 104 120 5,300 -120 Descending Aus ATC (RADAR)
09:43PM -21.6078 149.4274 152° Southeast 107 123 5,300  Level Aus ATC (RADAR)
09:44PM -21.6331 149.4419 152° Southeast 104 120 5,300  Level Aus ATC (RADAR)
09:45PM -21.6521 149.4528 150° Southeast 103 119 5,300 60 Level Aus ATC (RADAR)
09:46PM -21.6663 149.4618 149° Southeast 102 117 5,400 60 Climbing Aus ATC (RADAR)
09:46PM -21.6786 149.4697 151° Southeast 103 119 5,400 -120 Level Aus ATC (RADAR)
09:47PM -21.6938 149.4786 155° Southeast 105 121 5,300 -120 Descending Aus ATC (RADAR)
09:47PM -21.7097 149.4865 153° Southeast 106 122 5,300  Level Aus ATC (RADAR)
09:48PM -21.7355 149.5009 155° Southeast 104 120 5,300  Level Aus ATC (RADAR)
09:49PM -21.7614 149.5138 153° Southeast 101 116 5,400  Climbing Aus ATC (RADAR)
09:50PM -21.7798 149.5238 152° Southeast 100 115 5,400 60 Level Aus ATC (RADAR)
09:51PM -21.7940 149.5319 155° Southeast 100 115 5,500 60 Climbing Aus ATC (RADAR)
09:51PM -21.8094 149.5395 154° Southeast 103 119 5,500  Level Aus ATC (RADAR)
09:52PM -21.8269 149.5489 150° Southeast 107 123 5,500  Level Aus ATC (RADAR)
09:53PM -21.8413 149.5577 148° Southeast 103 119 5,500  Level Aus ATC (RADAR)
09:54PM -21.8673 149.5749 156° South 102 117 5,500  Level Aus ATC (RADAR)
09:55PM -21.8932 149.5872 159° South 98 113 5,500  Level Aus ATC (RADAR)
09:55PM -21.9101 149.5941 164° South 93 107 5,500  Level Aus ATC (RADAR)
09:56PM -21.9275 149.5993 163° South 99 114 5,500  Level Aus ATC (RADAR)
09:56PM -21.9438 149.6046 152° Southeast 100 115 5,500 -120 Level Aus ATC (RADAR)
09:57PM -21.9560 149.6115 159° South 100 115 5,400 -120 Descending Aus ATC (RADAR)
09:58PM -21.9722 149.6182 159° South 103 119 5,400  Level Aus ATC (RADAR)
09:59PM -22.0028 149.6306 146° Southeast 108 124 5,400  Level Aus ATC (RADAR)
10:00PM -22.0265 149.6477 161° South 106 122 5,400  Level Aus ATC (RADAR)
10:00PM -22.0481 149.6557 149° Southeast 104 120 5,400 -60 Level Aus ATC (RADAR)
10:19PM -22.4983 149.9479 146° Southeast 108 124 5,300 -60 Descending Aus ATC (RADAR)
10:19PM -22.5121 149.9581 157° South 104 120 5,300  Level Aus ATC (RADAR)
10:20PM -22.5274 149.9650 152° Southeast 102 117 5,300  Level Aus ATC (RADAR)
10:21PM -22.5403 149.9724 151° Southeast 105 121 5,300  Level Aus ATC (RADAR)
10:21PM -22.5554 149.9813 152° Southeast 107 123 5,300 -120 Level Aus ATC (RADAR)
10:22PM -22.5706 149.9901 157° South 107 123 5,200 -120 Descending Aus ATC (RADAR)
10:22PM -22.5863 149.9974 160° South 105 121 5,200  Level Aus ATC (RADAR)
10:23PM -22.6023 150.0037 154° Southeast 105 121 5,200  Level Aus ATC (RADAR)
10:24PM -22.6290 150.0180 152° Southeast 98 113 5,300 60 Climbing Aus ATC (RADAR)
10:25PM -22.6475 150.0285 153° Southeast 98 113 5,400 60 Climbing Aus ATC (RADAR)
10:25PM -22.6625 150.0369 149° Southeast 105 121 5,400  Level Aus ATC (RADAR)
10:26PM -22.6812 150.0490 150° Southeast 104 120 5,400  Level Aus ATC (RADAR)
10:27PM -22.6936 150.0568 149° Southeast 103 119 5,400  Level Aus ATC (RADAR)
10:27PM -22.7080 150.0664 153° Southeast 104 120 5,400 -120 Level Aus ATC (RADAR)
10:28PM -22.7236 150.0749 149° Southeast 107 123 5,300 -60 Descending Aus ATC (RADAR)
10:29PM -22.7573 150.0972 152° Southeast 104 120 5,300  Level Aus ATC (RADAR)
10:30PM -22.7780 150.1093 151° Southeast 100 115 5,300  Level Aus ATC (RADAR)
10:30PM -22.7919 150.1178 158° South 100 115 5,300 60 Level Aus ATC (RADAR)
10:31PM -22.8118 150.1266 145° Southeast 102 117 5,400 60 Climbing Aus ATC (RADAR)
10:32PM -22.8255 150.1370 144° Southeast 103 119 5,400  Level Aus ATC (RADAR)
10:32PM -22.8390 150.1476 142° Southeast 102 117 5,400  Level Aus ATC (RADAR)
10:33PM -22.8525 150.1591 148° Southeast 105 121 5,400  Level Aus ATC (RADAR)
10:34PM -22.8795 150.1772 156° South 107 123 5,400 -120 Level Aus ATC (RADAR)
10:35PM -22.9005 150.1873 150° Southeast 112 129 5,200 -180 Descending Aus ATC (RADAR)
10:35PM -22.9159 150.1970 148° Southeast 110 127 5,200  Level Aus ATC (RADAR)
10:36PM -22.9326 150.2084 146° Southeast 107 123 5,200  Level Aus ATC (RADAR)
10:37PM -22.9466 150.2185 144° Southeast 104 120 5,200  Level Aus ATC (RADAR)
10:37PM -22.9605 150.2295 153° Southeast 107 123 5,200  Level Aus ATC (RADAR)
10:38PM -22.9752 150.2375 153° Southeast 101 116 5,200 60 Level Aus ATC (RADAR)
10:38PM -22.9902 150.2457 147° Southeast 103 119 5,300 60 Climbing Aus ATC (RADAR)
10:39PM -23.0081 150.2584 147° Southeast 104 120 5,300  Level Aus ATC (RADAR)
10:40PM -23.0201 150.2669 153° Southeast 104 120 5,300  Level Aus ATC (RADAR)
10:40PM -23.0355 150.2754 159° South 106 122 5,300  Level Aus ATC (RADAR)
10:41PM -23.0541 150.2830 155° Southeast 109 125 5,300  Level Aus ATC (RADAR)
10:41PM -23.0705 150.2912 151° Southeast 112 129 5,300  Level Aus ATC (RADAR)
10:42PM -23.0856 150.3003 149° Southeast 108 124 5,300  Level Aus ATC (RADAR)
10:43PM -23.1006 150.3102 147° Southeast 108 124 5,300  Level Aus ATC (RADAR)
10:43PM -23.1148 150.3203 155° Southeast 105 121 5,300 60 Level Aus ATC (RADAR)
10:44PM -23.1390 150.3327 152° Southeast 107 123 5,400  Climbing Aus ATC (RADAR)
10:45PM -23.1600 150.3451 153° Southeast 104 120 5,400  Level Aus ATC (RADAR)
10:45PM -23.1729 150.3521 140° Southeast 104 120 5,400 -360 Level Aus ATC (RADAR)
10:46PM -23.1911 150.3689 124° Southeast 113 130 5,000 -540 Descending Aus ATC (RADAR)
10:47PM -23.2017 150.3861 134° Southeast 114 131 4,700 -600 Descending Aus ATC (RADAR)
10:47PM -23.2149 150.4007 145° Southeast 115 132 4,300 -720 Descending Aus ATC (RADAR)
10:48PM -23.2311 150.4130 160° South 121 139 3,900 -900 Descending Aus ATC (RADAR)
10:49PM -23.2493 150.4204 161° South 120 138 3,300 -960 Descending Aus ATC (RADAR)
10:50PM -23.2839 150.4336 155° Southeast 118 136 2,400 -900 Descending Aus ATC (RADAR)
10:51PM -23.3112 150.4474 158° South 115 132 1,600 -900 Descending Aus ATC (RADAR)
10:51PM -23.3327 150.4570 159° South 93 107 900 -600 Descending Aus ATC (RADAR)
10:52PM -23.3529 150.4654 155° Southeast 71 82 500 -480 Descending Aus ATC (RADAR)
10:53PM -23.3632 150.4707 155° Southeast 71 82 200 -540 Descending Aus ATC (RADAR)